createdAt,value
2018-09-04T00:00:04.185Z,17.44
2018-09-04T00:02:32.473Z,17.49
2018-09-04T00:05:00.811Z,17.51
2018-09-04T00:07:29.113Z,17.52
2018-09-04T00:09:57.422Z,17.46
2018-09-04T00:12:25.693Z,17.47
2018-09-04T00:14:56.094Z,17.44
2018-09-04T00:17:24.366Z,17.44
2018-09-04T00:19:52.714Z,17.39
2018-09-04T00:22:21.000Z,17.44
2018-09-04T00:24:50.285Z,17.38
2018-09-04T00:27:19.617Z,17.38
2018-09-04T00:29:47.948Z,17.41
2018-09-04T00:32:16.249Z,17.38
2018-09-04T00:34:44.630Z,17.38
2018-09-04T00:37:13.514Z,17.31
2018-09-04T00:39:44.525Z,17.34
2018-09-04T00:42:12.859Z,17.32
2018-09-04T00:44:41.456Z,17.33
2018-09-04T00:47:09.753Z,17.22
2018-09-04T00:49:39.146Z,17.25
2018-09-04T00:52:08.541Z,17.30
2018-09-04T00:54:36.858Z,17.27
2018-09-04T00:57:05.310Z,17.26
2018-09-04T00:59:33.573Z,17.26
2018-09-04T01:02:01.889Z,17.23
2018-09-04T01:04:30.198Z,17.30
2018-09-04T01:06:58.497Z,17.27
2018-09-04T01:09:26.772Z,17.24
2018-09-04T01:11:55.149Z,17.18
2018-09-04T01:14:23.458Z,17.24
2018-09-04T01:16:51.865Z,17.18
2018-09-04T01:19:20.169Z,17.17
2018-09-04T01:21:48.460Z,17.19
2018-09-04T01:24:16.797Z,17.21
2018-09-04T01:26:45.085Z,17.11
2018-09-04T01:29:13.446Z,17.07
2018-09-04T01:31:41.819Z,17.11
2018-09-04T01:34:10.133Z,17.14
2018-09-04T01:36:39.360Z,17.06
2018-09-04T01:39:07.849Z,17.03
2018-09-04T01:41:36.108Z,17.03
2018-09-04T01:44:04.400Z,16.98
2018-09-04T01:46:32.697Z,16.99
2018-09-04T01:49:00.989Z,16.84
2018-09-04T01:51:29.585Z,16.89
2018-09-04T01:53:57.877Z,16.86
2018-09-04T01:56:26.149Z,16.87
2018-09-04T01:58:54.445Z,16.87
2018-09-04T02:01:22.746Z,16.81
2018-09-04T02:03:51.170Z,16.88
2018-09-04T02:06:19.456Z,16.83
2018-09-04T02:08:47.721Z,16.87
2018-09-04T02:11:16.012Z,16.88
2018-09-04T02:13:44.294Z,16.88
2018-09-04T02:16:12.625Z,16.91
2018-09-04T02:18:40.905Z,16.85
2018-09-04T02:21:09.356Z,16.85
2018-09-04T02:23:37.614Z,16.94
2018-09-04T02:26:06.377Z,16.89
2018-09-04T02:28:34.779Z,16.90
2018-09-04T02:31:03.157Z,16.90
2018-09-04T02:33:31.521Z,16.92
2018-09-04T02:35:59.835Z,16.90
2018-09-04T02:38:28.241Z,16.88
2018-09-04T02:40:56.582Z,16.88
2018-09-04T02:43:24.883Z,16.85
2018-09-04T02:45:53.189Z,16.90
2018-09-04T02:48:21.474Z,16.93
2018-09-04T02:50:50.237Z,16.83
2018-09-04T02:53:18.504Z,16.83
2018-09-04T02:55:46.804Z,16.91
2018-09-04T02:58:15.092Z,16.97
2018-09-04T03:00:43.435Z,16.97
2018-09-04T03:03:11.705Z,16.98
2018-09-04T03:05:39.960Z,16.93
2018-09-04T03:08:08.310Z,16.86
2018-09-04T03:10:36.564Z,16.80
2018-09-04T03:13:04.843Z,16.82
2018-09-04T03:15:33.178Z,16.84
2018-09-04T03:18:01.457Z,16.89
2018-09-04T03:20:29.732Z,16.85
2018-09-04T03:22:58.145Z,16.87
2018-09-04T03:25:26.422Z,16.87
2018-09-04T03:27:54.701Z,16.89
2018-09-04T03:30:22.953Z,16.87
2018-09-04T03:32:51.269Z,16.88
2018-09-04T03:35:19.530Z,16.90
2018-09-04T03:37:47.801Z,16.84
2018-09-04T03:40:16.057Z,16.77
2018-09-04T03:42:44.356Z,16.88
2018-09-04T03:45:12.645Z,16.96
2018-09-04T03:47:40.939Z,16.97
2018-09-04T03:50:09.248Z,16.90
2018-09-04T03:52:37.529Z,16.88
2018-09-04T03:55:05.936Z,16.86
2018-09-04T03:57:35.288Z,16.88
2018-09-04T04:00:03.573Z,16.93
2018-09-04T04:02:31.821Z,16.91
2018-09-04T04:05:00.101Z,16.97
2018-09-04T04:07:28.362Z,17.02
2018-09-04T04:09:56.644Z,17.07
2018-09-04T04:12:25.029Z,17.10
2018-09-04T04:14:53.297Z,17.02
2018-09-04T04:17:21.580Z,17.10
2018-09-04T04:19:49.865Z,17.13
2018-09-04T04:22:18.118Z,17.23
2018-09-04T04:24:46.393Z,17.23
2018-09-04T04:27:14.641Z,17.22
2018-09-04T04:29:42.973Z,17.17
2018-09-04T04:32:11.233Z,17.24
2018-09-04T04:34:39.617Z,17.20
2018-09-04T04:37:07.871Z,17.25
2018-09-04T04:39:36.145Z,17.23
2018-09-04T04:42:04.409Z,17.29
2018-09-04T04:44:32.908Z,17.32
2018-09-04T04:47:01.197Z,17.37
2018-09-04T04:49:29.455Z,17.34
2018-09-04T04:51:57.721Z,17.46
2018-09-04T04:54:25.995Z,17.40
2018-09-04T04:56:54.274Z,17.44
2018-09-04T04:59:22.522Z,17.52
2018-09-04T05:01:50.809Z,17.64
2018-09-04T05:04:19.150Z,17.70
2018-09-04T05:06:47.480Z,17.68
2018-09-04T05:09:15.801Z,17.66
2018-09-04T05:11:44.109Z,17.65
2018-09-04T05:14:12.359Z,17.66
2018-09-04T05:16:40.666Z,17.63
2018-09-04T05:19:08.922Z,18.00
2018-09-04T05:21:37.209Z,17.87
2018-09-04T05:24:05.641Z,17.91
2018-09-04T05:26:33.917Z,17.81
2018-09-04T05:29:02.198Z,17.93
2018-09-04T05:31:35.188Z,17.84
2018-09-04T05:34:03.473Z,17.93
2018-09-04T05:36:31.829Z,18.12
2018-09-04T05:39:00.114Z,18.27
2018-09-04T05:41:29.486Z,18.42
2018-09-04T05:43:59.627Z,18.49
2018-09-04T05:46:37.605Z,18.50
2018-09-04T05:49:05.956Z,18.55
2018-09-04T05:51:34.257Z,18.61
2018-09-04T05:54:02.601Z,18.78
2018-09-04T05:56:31.265Z,18.85
2018-09-04T05:58:59.518Z,18.85
2018-09-04T06:01:27.800Z,18.86
2018-09-04T06:03:56.143Z,18.98
2018-09-04T06:06:24.406Z,18.81
2018-09-04T06:08:52.717Z,19.06
2018-09-04T06:11:20.983Z,19.35
2018-09-04T06:13:49.432Z,19.58
2018-09-04T06:16:17.917Z,19.73
2018-09-04T06:18:46.237Z,19.74
2018-09-04T06:21:14.509Z,19.38
2018-09-04T06:23:42.889Z,19.20
2018-09-04T06:26:11.158Z,19.29
2018-09-04T06:28:39.445Z,19.21
2018-09-04T06:31:07.769Z,19.34
2018-09-04T06:33:36.400Z,19.49
2018-09-04T06:36:05.048Z,19.64
2018-09-04T06:38:33.341Z,19.55
2018-09-04T06:41:01.622Z,19.71
2018-09-04T06:43:29.884Z,19.81
2018-09-04T06:45:58.221Z,19.93
2018-09-04T06:48:26.505Z,20.46
2018-09-04T06:50:54.853Z,20.63
2018-09-04T06:53:23.097Z,20.50
2018-09-04T06:55:51.373Z,20.48
2018-09-04T06:58:19.615Z,20.28
2018-09-04T07:00:47.878Z,20.19
2018-09-04T07:03:16.130Z,20.43
2018-09-04T07:05:44.445Z,20.17
2018-09-04T07:08:12.690Z,20.20
2018-09-04T07:10:40.972Z,20.52
2018-09-04T07:13:09.248Z,20.46
2018-09-04T07:15:37.546Z,20.71
2018-09-04T07:18:06.464Z,21.16
2018-09-04T07:20:34.761Z,20.82
2018-09-04T07:23:03.009Z,20.40
2018-09-04T07:25:31.301Z,20.13
2018-09-04T07:27:59.617Z,20.16
2018-09-04T07:30:28.979Z,20.61
2018-09-04T07:32:57.218Z,20.70
2018-09-04T07:35:25.501Z,20.92
2018-09-04T07:37:53.778Z,20.75
2018-09-04T07:40:22.013Z,21.12
2018-09-04T07:42:50.314Z,20.72
2018-09-04T07:45:18.609Z,21.04
2018-09-04T07:47:47.217Z,20.66
2018-09-04T07:50:15.564Z,20.46
2018-09-04T07:52:43.835Z,20.88
2018-09-04T07:55:12.089Z,20.87
2018-09-04T07:57:40.391Z,20.97
2018-09-04T08:00:09.357Z,20.78
2018-09-04T08:02:37.644Z,20.57
2018-09-04T08:05:06.387Z,20.47
2018-09-04T08:07:34.886Z,20.51
2018-09-04T08:10:03.183Z,20.97
2018-09-04T08:12:31.469Z,21.29
2018-09-04T08:14:59.793Z,21.16
2018-09-04T08:17:29.066Z,20.81
2018-09-04T08:19:57.352Z,21.16
2018-09-04T08:22:25.628Z,21.74
2018-09-04T08:24:53.913Z,21.99
2018-09-04T08:27:22.217Z,22.75
2018-09-04T08:29:50.455Z,22.17
2018-09-04T08:32:18.692Z,22.29
2018-09-04T08:34:47.149Z,21.63
2018-09-04T08:37:15.390Z,21.45
2018-09-04T08:39:43.642Z,21.41
2018-09-04T08:42:11.922Z,21.40
2018-09-04T08:44:40.169Z,21.25
2018-09-04T08:47:08.605Z,21.27
2018-09-04T08:49:36.840Z,21.04
2018-09-04T08:52:05.112Z,21.26
2018-09-04T08:54:33.369Z,21.03
2018-09-04T08:57:01.700Z,21.05
2018-09-04T08:59:30.221Z,21.45
2018-09-04T09:01:59.514Z,22.12
2018-09-04T09:04:27.851Z,21.99
2018-09-04T09:06:56.105Z,21.65
2018-09-04T09:09:27.421Z,22.28
2018-09-04T09:11:55.729Z,22.07
2018-09-04T09:14:24.045Z,22.46
2018-09-04T09:16:52.465Z,22.97
2018-09-04T09:19:20.609Z,23.13
2018-09-04T09:21:48.971Z,22.49
2018-09-04T09:24:17.209Z,22.23
2018-09-04T09:26:45.480Z,22.53
2018-09-04T09:29:13.730Z,22.97
2018-09-04T09:31:42.078Z,23.17
2018-09-04T09:34:10.446Z,23.47
2018-09-04T09:36:38.790Z,23.40
2018-09-04T09:39:08.645Z,23.17
2018-09-04T09:41:38.134Z,23.04
2018-09-04T09:44:06.368Z,23.90
2018-09-04T09:46:34.690Z,23.86
2018-09-04T09:49:02.938Z,24.28
2018-09-04T09:51:31.268Z,24.61
2018-09-04T09:53:59.601Z,24.19
2018-09-04T09:56:27.949Z,23.90
2018-09-04T09:58:56.170Z,24.66
2018-09-04T10:01:29.871Z,24.08
2018-09-04T10:03:58.201Z,24.29
2018-09-04T10:06:27.664Z,24.15
2018-09-04T10:08:55.987Z,24.77
2018-09-04T10:11:24.316Z,24.30
2018-09-04T10:13:52.650Z,24.04
2018-09-04T10:16:20.929Z,23.98
2018-09-04T10:18:50.301Z,23.53
2018-09-04T10:21:18.579Z,23.57
2018-09-04T10:23:47.048Z,23.50
2018-09-04T10:26:15.342Z,23.23
2018-09-04T10:28:43.605Z,23.68
2018-09-04T10:31:11.855Z,23.84
2018-09-04T10:33:40.140Z,23.79
2018-09-04T10:36:08.405Z,23.84
2018-09-04T10:38:36.714Z,23.75
2018-09-04T10:41:09.773Z,23.37
2018-09-04T10:43:38.178Z,22.91
2018-09-04T10:46:09.074Z,22.72
2018-09-04T10:48:37.394Z,22.96
2018-09-04T10:51:05.973Z,22.78
2018-09-04T10:53:34.409Z,23.78
2018-09-04T10:56:02.665Z,23.49
2018-09-04T10:58:31.062Z,23.44
2018-09-04T11:00:59.325Z,24.11
2018-09-04T11:03:27.801Z,24.23
2018-09-04T11:05:56.101Z,24.67
2018-09-04T11:08:24.385Z,24.09
2018-09-04T11:10:52.709Z,24.00
2018-09-04T11:13:20.985Z,23.91
2018-09-04T11:15:49.261Z,24.12
2018-09-04T11:18:17.574Z,24.24
2018-09-04T11:20:45.849Z,23.78
2018-09-04T11:23:14.093Z,23.56
2018-09-04T11:25:42.409Z,23.62
2018-09-04T11:28:10.689Z,23.53
2018-09-04T11:30:38.986Z,23.23
2018-09-04T11:33:07.344Z,23.23
2018-09-04T11:35:35.626Z,23.09
2018-09-04T11:38:03.865Z,23.30
2018-09-04T11:40:32.173Z,23.33
2018-09-04T11:43:00.734Z,23.56
2018-09-04T11:45:29.017Z,23.66
2018-09-04T11:47:58.872Z,23.74
2018-09-04T11:50:27.340Z,23.49
2018-09-04T11:52:55.613Z,23.43
2018-09-04T11:55:24.289Z,23.98
2018-09-04T11:57:52.544Z,24.06
2018-09-04T12:00:31.429Z,23.86
2018-09-04T12:03:00.013Z,23.79
2018-09-04T12:05:29.473Z,23.78
2018-09-04T12:07:57.721Z,23.86
2018-09-04T12:10:25.970Z,23.92
2018-09-04T12:12:54.293Z,23.70
2018-09-04T12:15:22.485Z,24.05
2018-09-04T12:17:50.801Z,24.47
2018-09-04T12:20:29.427Z,24.44
2018-09-04T12:22:57.704Z,24.63
2018-09-04T12:25:26.593Z,24.15
2018-09-04T12:27:54.869Z,24.22
2018-09-04T12:30:23.147Z,24.01
2018-09-04T12:32:51.586Z,24.58
2018-09-04T12:35:20.045Z,24.70
2018-09-04T12:37:48.311Z,24.15
2018-09-04T12:40:16.553Z,24.00
2018-09-04T12:42:44.830Z,24.10
2018-09-04T12:45:13.205Z,23.99
2018-09-04T12:47:41.561Z,23.97
2018-09-04T12:50:09.797Z,23.94
2018-09-04T12:52:38.057Z,24.05
2018-09-04T12:55:06.783Z,24.27
2018-09-04T12:57:35.061Z,24.11
2018-09-04T13:00:03.366Z,24.03
2018-09-04T13:02:32.746Z,24.32
2018-09-04T13:05:01.017Z,24.25
2018-09-04T13:07:29.277Z,24.10
2018-09-04T13:09:57.577Z,24.03
2018-09-04T13:12:25.841Z,24.34
2018-09-04T13:14:54.136Z,24.41
2018-09-04T13:17:22.451Z,24.86
2018-09-04T13:19:50.809Z,24.88
2018-09-04T13:22:19.061Z,24.74
2018-09-04T13:24:47.486Z,24.63
2018-09-04T13:27:15.941Z,24.63
2018-09-04T13:29:44.209Z,24.74
2018-09-04T13:32:12.552Z,25.67
2018-09-04T13:34:40.833Z,26.78
2018-09-04T13:37:09.865Z,26.88
2018-09-04T13:39:38.141Z,27.84
2018-09-04T13:42:07.105Z,29.16
2018-09-04T13:44:35.492Z,29.96
2018-09-04T13:47:03.812Z,29.02
2018-09-04T13:49:32.246Z,26.96
2018-09-04T13:52:00.373Z,26.25
2018-09-04T13:54:29.645Z,26.35
2018-09-04T13:56:57.932Z,25.46
2018-09-04T13:59:26.185Z,25.39
2018-09-04T14:01:54.554Z,25.49
2018-09-04T14:04:24.797Z,25.39
2018-09-04T14:06:53.082Z,25.54
2018-09-04T14:09:53.745Z,25.04
2018-09-04T14:12:22.057Z,24.68
2018-09-04T14:14:50.433Z,24.40
2018-09-04T14:17:20.153Z,24.50
2018-09-04T14:19:49.443Z,24.88
2018-09-04T14:22:17.726Z,24.46
2018-09-04T14:24:45.958Z,25.35
2018-09-04T14:27:14.241Z,25.60
2018-09-04T14:30:15.541Z,27.02
2018-09-04T14:32:10.749Z,26.39
2018-09-04T14:34:39.012Z,25.66
2018-09-04T14:37:07.391Z,25.18
2018-09-04T14:39:35.554Z,24.98
2018-09-04T14:42:03.827Z,24.91
2018-09-04T14:44:32.077Z,24.94
2018-09-04T14:47:00.311Z,25.16
2018-09-04T14:49:28.570Z,25.45
2018-09-04T14:51:56.822Z,25.29
2018-09-04T14:54:25.101Z,26.30
2018-09-04T14:56:53.399Z,26.31
2018-09-04T14:59:21.689Z,25.41
2018-09-04T15:01:50.031Z,24.99
2018-09-04T15:04:18.333Z,25.31
2018-09-04T15:06:46.604Z,25.92
2018-09-04T15:09:14.984Z,25.76
2018-09-04T15:11:43.234Z,26.73
2018-09-04T15:14:11.533Z,28.47
2018-09-04T15:16:43.046Z,31.14
2018-09-04T15:19:14.896Z,33.27
2018-09-04T15:21:45.282Z,34.47
2018-09-04T15:24:16.361Z,34.91
2018-09-04T15:26:47.446Z,35.69
2018-09-04T15:29:19.274Z,35.73
2018-09-04T15:31:48.542Z,35.81
2018-09-04T15:34:19.866Z,36.32
2018-09-04T15:36:51.505Z,36.88
2018-09-04T15:39:22.580Z,36.72
2018-09-04T15:41:53.351Z,36.52
2018-09-04T15:44:22.004Z,35.38
2018-09-04T15:46:50.296Z,32.95
2018-09-04T15:49:23.732Z,34.01
2018-09-04T15:51:52.037Z,35.57
2018-09-04T15:54:20.319Z,34.19
2018-09-04T15:56:48.598Z,30.65
2018-09-04T15:59:16.869Z,28.60
2018-09-04T16:01:45.129Z,26.48
2018-09-04T16:04:13.413Z,25.29
2018-09-04T16:06:42.737Z,26.81
2018-09-04T16:09:10.969Z,29.67
2018-09-04T16:11:39.268Z,31.43
2018-09-04T16:14:07.638Z,32.57
2018-09-04T16:16:35.972Z,33.33
2018-09-04T16:19:04.237Z,30.97
2018-09-04T16:21:32.517Z,30.13
2018-09-04T16:24:00.762Z,31.61
2018-09-04T16:26:29.037Z,30.77
2018-09-04T16:28:57.285Z,30.44
2018-09-04T16:31:25.546Z,31.82
2018-09-04T16:33:53.857Z,32.20
2018-09-04T16:36:22.140Z,31.07
2018-09-04T16:38:51.110Z,31.04
2018-09-04T16:41:19.433Z,30.98
2018-09-04T16:43:47.657Z,31.68
2018-09-04T16:46:16.090Z,29.78
2018-09-04T16:48:44.358Z,27.74
2018-09-04T16:51:12.633Z,26.45
2018-09-04T16:53:40.957Z,25.43
2018-09-04T16:56:09.580Z,24.56
2018-09-04T16:58:37.833Z,23.57
2018-09-04T17:01:06.190Z,23.27
2018-09-04T17:03:34.465Z,22.96
2018-09-04T17:06:02.797Z,22.75
2018-09-04T17:08:31.073Z,22.80
2018-09-04T17:10:59.321Z,22.42
2018-09-04T17:13:27.592Z,22.22
2018-09-04T17:15:55.845Z,22.18
2018-09-04T17:18:24.141Z,22.14
2018-09-04T17:20:52.387Z,21.96
2018-09-04T17:23:20.658Z,21.69
2018-09-04T17:25:48.950Z,21.52
2018-09-04T17:28:17.233Z,21.33
2018-09-04T17:30:45.472Z,21.35
2018-09-04T17:33:13.769Z,21.22
2018-09-04T17:35:42.009Z,21.14
2018-09-04T17:38:10.281Z,21.04
2018-09-04T17:40:38.537Z,20.93
2018-09-04T17:43:06.989Z,20.82
2018-09-04T17:45:35.288Z,20.73
2018-09-04T17:48:03.684Z,20.41
2018-09-04T17:50:31.841Z,20.33
2018-09-04T17:53:00.237Z,20.28
2018-09-04T17:55:28.501Z,20.28
2018-09-04T17:57:56.743Z,20.20
2018-09-04T18:00:25.001Z,20.08
2018-09-04T18:02:53.248Z,20.08
2018-09-04T18:05:21.525Z,20.08
2018-09-04T18:07:49.762Z,20.00
2018-09-04T18:10:18.033Z,20.04
2018-09-04T18:12:46.277Z,20.00
2018-09-04T18:15:14.598Z,19.98
2018-09-04T18:17:42.845Z,19.90
2018-09-04T18:20:12.130Z,19.94
2018-09-04T18:22:40.377Z,19.90
2018-09-04T18:25:08.689Z,19.83
2018-09-04T18:27:36.937Z,19.84
2018-09-04T18:30:05.314Z,19.77
2018-09-04T18:37:22.230Z,19.60
2018-09-04T18:39:50.792Z,19.45
2018-09-04T18:42:19.017Z,19.56
2018-09-04T18:44:47.273Z,19.51
2018-09-04T18:47:15.537Z,19.47
2018-09-04T18:49:43.830Z,19.45
2018-09-04T18:52:12.809Z,19.41
2018-09-04T18:54:41.066Z,19.35
2018-09-04T18:57:09.409Z,19.33
2018-09-04T18:59:38.230Z,19.33
2018-09-04T19:02:06.459Z,19.24
2018-09-04T19:04:34.725Z,19.23
2018-09-04T19:07:02.973Z,19.10
2018-09-04T19:09:31.239Z,19.14
2018-09-04T19:11:59.533Z,19.05
2018-09-04T19:14:27.977Z,19.02
2018-09-04T19:16:57.365Z,19.02
2018-09-04T19:19:26.077Z,18.95
2018-09-04T19:21:54.326Z,18.81
2018-09-04T19:24:22.688Z,18.76
2018-09-04T19:26:50.946Z,18.64
2018-09-04T19:29:19.217Z,18.51
2018-09-04T19:31:47.547Z,18.59
2018-09-04T19:34:15.813Z,18.59
2018-09-04T19:36:46.846Z,18.49
2018-09-04T19:39:16.623Z,18.58
2018-09-04T19:41:44.877Z,18.47
2018-09-04T19:44:13.165Z,18.39
2018-09-04T19:46:41.482Z,18.41
2018-09-04T19:49:10.021Z,18.32
2018-09-04T19:51:38.305Z,18.23
2018-09-04T19:54:06.729Z,18.28
2018-09-04T19:56:35.053Z,18.19
2018-09-04T19:59:03.360Z,18.14
2018-09-04T20:01:31.609Z,18.08
2018-09-04T20:03:59.921Z,18.09
2018-09-04T20:06:32.855Z,18.03
2018-09-04T20:09:01.192Z,18.00
2018-09-04T20:11:29.454Z,17.93
2018-09-04T20:14:00.661Z,17.93
2018-09-04T20:16:31.751Z,17.94
2018-09-04T20:19:03.098Z,17.82
2018-09-04T20:21:33.644Z,17.83
2018-09-04T20:24:04.938Z,17.82
2018-09-04T20:26:36.278Z,17.84
2018-09-04T20:29:08.043Z,17.84
2018-09-04T20:31:39.576Z,17.88
2018-09-04T20:34:11.081Z,17.91
2018-09-04T20:36:42.351Z,17.80
2018-09-04T20:39:10.609Z,17.75
2018-09-04T20:41:40.045Z,17.72
2018-09-04T20:44:08.441Z,17.70
2018-09-04T20:46:36.753Z,17.77
2018-09-04T20:49:05.068Z,17.73
2018-09-04T20:51:33.361Z,17.59
2018-09-04T20:54:01.609Z,17.48
2018-09-04T20:56:29.877Z,17.35
2018-09-04T20:59:09.349Z,17.32
2018-09-04T21:01:49.141Z,17.34
2018-09-04T21:04:28.737Z,17.51
2018-09-04T21:06:56.309Z,17.57
2018-09-04T21:09:44.456Z,17.64
2018-09-04T21:12:12.909Z,17.45
2018-09-04T21:14:41.161Z,17.44
2018-09-04T21:17:09.475Z,17.35
2018-09-04T21:19:37.856Z,17.32
2018-09-04T21:22:06.141Z,17.31
2018-09-04T21:24:34.405Z,17.33
2018-09-04T21:27:02.697Z,17.13
2018-09-04T21:29:30.973Z,17.13
2018-09-04T21:31:59.277Z,17.11
2018-09-04T21:34:27.561Z,17.15
2018-09-04T21:36:55.807Z,17.18
2018-09-04T21:39:24.100Z,17.18
2018-09-04T21:41:52.390Z,17.17
2018-09-04T21:44:20.694Z,17.25
2018-09-04T21:46:49.006Z,17.25
2018-09-04T21:49:17.733Z,17.13
2018-09-04T21:51:45.981Z,17.10
2018-09-04T21:54:14.261Z,17.12
2018-09-04T21:56:42.581Z,17.18
2018-09-04T21:59:10.910Z,17.17
2018-09-04T22:01:39.210Z,17.06
2018-09-04T22:04:07.493Z,17.03
2018-09-04T22:06:35.789Z,16.98
2018-09-04T22:09:04.893Z,17.07
2018-09-04T22:11:33.197Z,17.04
2018-09-04T22:14:01.485Z,17.02
2018-09-04T22:16:30.841Z,17.01
2018-09-04T22:19:00.117Z,16.96
2018-09-04T22:21:28.429Z,17.00
2018-09-04T22:23:56.678Z,16.98
2018-09-04T22:26:24.979Z,17.05
2018-09-04T22:28:53.249Z,16.96
2018-09-04T22:31:21.615Z,16.99
2018-09-04T22:33:49.821Z,16.94
2018-09-04T22:36:18.109Z,16.88
2018-09-04T22:38:46.369Z,16.97
2018-09-04T22:41:14.641Z,16.97
2018-09-04T22:43:42.894Z,17.02
2018-09-04T22:46:11.169Z,16.98
2018-09-04T22:48:39.445Z,16.98
2018-09-04T22:51:13.037Z,16.93
2018-09-04T22:53:41.312Z,16.87
2018-09-04T22:56:09.604Z,16.80
2018-09-04T22:58:37.878Z,16.81
2018-09-04T23:01:06.661Z,16.81
2018-09-04T23:03:34.925Z,16.86
2018-09-04T23:06:03.185Z,16.91
2018-09-04T23:08:31.456Z,16.89
2018-09-04T23:10:59.776Z,16.84
2018-09-04T23:13:28.086Z,16.76
2018-09-04T23:15:56.389Z,16.85
2018-09-04T23:18:24.665Z,16.85
2018-09-04T23:20:54.052Z,16.81
2018-09-04T23:23:22.343Z,16.82
2018-09-04T23:25:50.629Z,16.74
2018-09-04T23:28:18.933Z,16.66
2018-09-04T23:30:47.210Z,16.68
2018-09-04T23:33:16.550Z,16.70
2018-09-04T23:35:45.609Z,16.71
2018-09-04T23:38:13.873Z,16.71
2018-09-04T23:40:42.158Z,16.69
2018-09-04T23:43:10.732Z,16.71
2018-09-04T23:45:38.992Z,16.62
2018-09-04T23:48:07.609Z,16.60
2018-09-04T23:50:35.923Z,16.62
2018-09-04T23:53:04.249Z,16.59
2018-09-04T23:55:32.575Z,16.54
2018-09-04T23:58:00.881Z,16.55
